Aurora, MO

3:48 PM CST on March 01, 2015 (GMT -0600)
KMOMONET2 | Change Station
CLOSE
Current Station
Personal Weather Station
Location: Monett, MO
Elevation: 1306 ft
Nearby Weather Stations

Elev 1306 ft 36.93 °N, 93.93 °W | Updated 12 seconds ago

Overcast
Overcast
33.3 °F
Feels Like 29 °F
N
5.1
Wind Variable Wind from NW
Gusts 8.3 mph

Today
High -- | Low -- °F
--% Chance of Precip.
Yesterday
High -- | Low -- °F
Precip. -- in
6:46 AM 6:08 PM
Waxing Gibbous, 87% visible
Pressure 30.33 in
Visibility 10.0 miles
Clouds Overcast 1600 ft
Windchill 29 °F
Dew Point 25 °F
Humidity 72%
Rainfall 0.18 in
Snow Depth Not available.
UV 1 out of 12
Pollen .60 out of 12
Air Quality Not available.
Flu Activity Not available.
METAR KHFJ 012135Z AUTO 32007KT 10SM OVC016 00/M02 A3033 RMK AO2

More Conditions Fewer Conditions

Pressure 30.33 in
Visibility 10.0 miles
Clouds Overcast 1600 ft
Windchill 29 °F
Dew Point 25 °F
Humidity 72%
Rainfall 0.18 in
Snow Depth Not available.
UV 1 out of 12
Pollen .60 out of 12
Air Quality Not available.
Flu Activity Not available.
METAR KHFJ 012135Z AUTO 32007KT 10SM OVC016 00/M02 A3033 RMK AO2

More Conditions Fewer Conditions

10-Day Weather Forecast

Almanac

Astronomy

Mar. 01, 2015 Rise Set
Actual Time
Civil Twilight
Nautical Twilight
Astronomical Twilight
Moon
Length of Visible Light
Length of Day
Tomorrow will be .
, % of the Moon is Illuminated

Today's Extremes

State Highs State Lows

Community

WunderPhotos

Upload Photos

1,801,577 photos uploaded!

WunderBlogs® & News

Nearby

Air Quality

  Air Quality AQ Index Pollutant
Not available.

Snow Depth

Station Depth Elevation

Earthquake Activity

City Distance Mag. Time & Date
Minimum magnitude displayed is 2.5.

Coastal Water Temperatures

Place Temperature

Nearby Weather Stations